Williamstown, Iowa
Current Conditions -  °F | °C
As of 10:15 PM on Monday 22 Dec 2014 (Local Time) from KAWG Reporting Station
Haze Haze  
Wind Chill: 36°   Ceiling: 300
Heat Index: 41°   Visibility: 3mi
Dew Point: 41°   Wind: 7mph
Humidity: 100%   Direction: 120°ESE
Pressure: 29.46"   Gusts: NA
Location:  41.4676°N, 91.7053°W
Report Text: KAWG 230415Z AUTO 12006KT 3SM BR OVC003 05/05 A2946 RMK AO2
Loading
Personal Weather Stations






























Interactive Weather Map New forecast layout! Learn more

10-Day Weather Forecast

Advertisements
Track Severe Weather on mobile